Detalii statie Girov TCE 3 BRAZI [000011A2]

Toti senzorii

Date Temperatura solului [C]Precipitatii [mm]Voltaj baterie [mV]Leaf Wetness [Min]HC Air temperature [C]HC Relative humidity [%]Punctul de roua [C]
medieminmaxsumaultimatimpmedieminmaxmediemediemin
2019-04-19 19:00:00 0 6864 0 8.65 8.2 8.94 100 8.6 8.2
2019-04-19 20:00:00 0 6738 0 7.15 6.88 7.82 100 7.1 6.8
2019-04-19 21:00:00 0.2 6650 0 6.8 6.65 6.95 100 6.7 6.6
2019-04-19 22:00:00 0 6600 0 6.06 5.45 6.68 100 6 5.4
2019-04-19 23:00:00 0 6572 0 5.3 5.13 5.49 100 5.2 5.1
2019-04-20 00:00:00 0 6562 0 5.12 4.98 5.24 100 5 4.9
2019-04-20 01:00:00 0 6552 0 4.88 4.41 5.22 100 4.8 4.4
2019-04-20 02:00:00 0 6532 0 4.26 4.12 4.44 100 4.2 4.1
2019-04-20 03:00:00 0 6522 0 4.35 4.27 4.48 100 4.3 4.2
2019-04-20 04:00:00 0 6512 0 3.85 3.3 4.16 100 3.8 3.3
2019-04-20 05:00:00 0 6512 0 2.78 2.46 3.15 100 2.7 2.4
2019-04-20 06:00:00 0 6494 0 2.44 2.15 2.8 100 2.3 2.1
2019-04-20 07:00:00 0 6512 0 2.46 2.13 3.29 100 2.4 2.1
2019-04-20 08:00:00 0 6650 0 3.68 3.29 4.15 100 3.6 3.2
2019-04-20 09:00:00 0 7000 0 7.05 4.17 9.65 100 7 4.1
2019-04-20 10:00:00 0 7000 0 10.14 9.6 10.71 100 10.1 9.6
2019-04-20 11:00:00 0 7000 0 11.23 10.83 11.65 100 11.1 10.8
2019-04-20 12:00:00 0 7000 0 11.5 10.57 13.02 100 11.4 10.5
2019-04-20 13:00:00 0 7000 0 11.37 10.99 11.99 100 11.3 10.9
2019-04-20 14:00:00 0 7000 0 11.92 11.37 12.96 99.88 11.8 11.3
2019-04-20 15:00:00 0 7000 0 12.5 12.08 13.19 99.68 12.3 11.7
2019-04-20 16:00:00 0 7000 0 12.98 11.81 14.74 99.54 12.8 11.7
2019-04-20 17:00:00 0 7000 0 13.42 12.31 14.25 99.19 13.2 12.1
2019-04-20 18:00:00 0 6972 0 13.02 12.81 13.26 98.37 12.6 11.9
2019-04-20 19:00:00 0 6922 0 12.26 11.46 12.95 99.33 12 11.4
2019-04-20 20:00:00 0 6806 0 10.19 8.49 11.38 100 10.1 8.4
2019-04-20 21:00:00 0 6688 0 6.56 5.24 8.25 100 6.5 5.2
2019-04-20 22:00:00 0 6610 0 4.72 3.55 5.3 100 4.6 3.5
2019-04-20 23:00:00 0 6582 0 2.9 2.07 3.6 100 2.8 2
2019-04-21 00:00:00 0 6552 0 1.79 1.27 2.3 100 1.7 1.2
2019-04-21 01:00:00 0 6542 0 1.06 0.56 1.43 100 1 0.5
2019-04-21 02:00:00 0 6542 0 1.61 0.95 2.06 100 1.5 0.9
2019-04-21 03:00:00 0 6522 0 1.56 1.23 2.18 100 1.5 1.2
2019-04-21 04:00:00 0 6522 0 1.09 0.79 1.53 100 1 0.7
2019-04-21 05:00:00 0 6502 0 0.75 0.37 1.13 100 0.7 0.3
2019-04-21 06:00:00 0 6494 0 2.32 0.96 2.73 100 2.2 0.9
2019-04-21 07:00:00 0 6502 0 3.23 2.35 4.06 100 3.1 2.3
2019-04-21 08:00:00 0 6668 0 5.1 4.21 5.86 100 5 4.2
2019-04-21 09:00:00 0 6992 0 7.92 6.12 9.51 100 7.8 6.1
2019-04-21 10:00:00 0 7000 0 10.82 10.07 11.41 100 10.7 10
2019-04-21 11:00:00 0 7000 0 11.66 10.79 13.05 100 11.6 10.7
2019-04-21 12:00:00 0 7000 0 14.4 13.42 15.72 100 14.3 13.4
2019-04-21 13:00:00 0 7000 0 15.83 15.09 17.13 99.79 15.7 15
2019-04-21 14:00:00 0 7000 0 15.58 14.83 17.96 99.85 15.4 14.8
2019-04-21 15:00:00 0 7000 0 16.37 15.66 16.97 99.89 16.2 15.5
2019-04-21 16:00:00 0 6922 0 15.97 15.42 16.64 99.46 15.8 15
2019-04-21 17:00:00 0.2 6992 0 13.07 11.45 14.98 100 13 11.4
2019-04-21 18:00:00 0 6942 0 11.22 10.96 11.58 100 11.1 10.9